Costa Marques, Brazil
Current Conditions -  °F | °C
As of 10:22 AM on Monday 26 Jan 2015 (Local Time) from SLTR Reporting Station
Light Rain Light Rain  
Wind Chill: 24°   Ceiling: 400
Heat Index: 24°   Visibility: 2.5mi
Dew Point: 23°   Wind: 3mph
Humidity: 94%   Direction: 270°W
Pressure: 29.94"   Gusts: NA
Location:  12.45°S, 64.23°W
Report Text: SLTR 261422Z 27003KT 4000 -RA BKN004 FEW020CB OVC070 24/23 Q1014
Loading
Personal Weather Stations






























Interactive Weather Map New forecast layout! Learn more

10-Day Weather Forecast

Advertisements
Track Severe Weather on mobile